Wenn Sie den Mauscursor in der Übersichtskarte über ein Stationssymbol ziehen, so werden die aktuellen Stationsdaten eingeblendet. Dabei handelt es sich um die jeweils aktuell vorliegenden Messwerte einer Station (siehe Datum und Uhrzeitangabe).

Durch Anklicken des entsprechenden Stationssymbols gelangen Sie zu den Gangliniendarstellung der Lufttemperatur, der Luftfeuchte und (sofern vorhanden) auch der Niederschlagshöhe. Jeder Parameter ist für einen Zeitraum für 30 Tage dargestellt. Die Lufttemperaturganglinie wird dabei dem am längsten verfügbaren Vergleichszeitraum gegenüber gestellt. Somit kann man für jeden Zeitpunkt der aktuellen Lufttemperaturganglinie sehen, welchen Schwankungsbereich die Lufttemperatur im Vergleichszeitraum exakt für diesen Kalendertag bzw. Zeitpunkt bisher aufgewiesen hat und somit kann man die aktuelle Lufttemperatur gegenüber den langjährigen Verhältnissen sehr gut einstufen.  

Zudem können Sie die Daten für die letzten 30 Tage downloaden.

Die  Stationssymbole auf der Übersichtskarte werden entsprechend der aktuellen Lufttemperatur bei der jeweiligen Station eingefärbt (siehe dazu Legende neben der Übersichtskarte).

Stationsname Zeit [MEZ] NS [mm/15min] NS [mm/24h] Temp [°C] Luftfeuchte [%]
Andau 05.03.2024 01:00 0,0 0,0 8,7
Apetlon - A79 05.03.2024 01:00 0,0 0,0 9,9 100,0
Aspang 05.03.2024 01:00 0,0 0,0 1,0
Bad Tatzmannsdorf 05.03.2024 01:00 0,0 0,0 2,9
Bernstein 05.03.2024 01:00 0,0 0,0 9,3
Bonisdorf 05.03.2024 01:00 0,0 0,0 7,9 92,0
Bruckneudorf 05.03.2024 01:00 0,0 0,0 8,7
Deutsch Jahrndorf 05.03.2024 01:00 0,0 0,0 8,3 88,0
Deutsch Kaltenbrunn 05.03.2024 01:00 0,0 0,0 5,7 80,6
Deutschkreutz 05.03.2024 01:00 0,0 0,0 3,8 96,0
Donnerskirchen 05.03.2024 01:00 0,0 0,0 11,1 65,0
Drassburg 05.03.2024 01:00 0,0 0,0 6,6 79,0
Dürnbach 05.03.2024 01:00 0,0 0,0 3,0 97,0
Eisenberg 05.03.2024 01:00 0,0 0,0 5,2 87,0
Eisenstadt 05.03.2024 01:00 0,0 0,0 9,5 79,0
Feldbach 05.03.2024 01:00 0,0 0,0 6,3
Fischbach 05.03.2024 01:00 0,0 0,0 5,2
Forchtenstein 05.03.2024 01:00 6,6 71,0
Frankenau 05.03.2024 01:00 0,0 0,0 2,9 100,0
Frauenkirchen 05.03.2024 01:00 0,0 0,0 8,3 93,0
Fürstenfeld 05.03.2024 01:00 0,0 0,0 4,7
Gattendorf 05.03.2024 01:00 0,0 0,0 9,3 79,0
Glashütten 05.03.2024 01:00 4,7 88,0
Glasing 05.03.2024 01:00 0,0 0,0 4,1 89,6
Gleisdorf 05.03.2024 01:00 0,0 0,0 5,7
Halbturn 05.03.2024 01:00 0,0 0,0 9,7 78,0
Heiligenkreuz 05.03.2024 01:00 0,0 0,0 3,3 94,0
Hirschenkogel 05.03.2024 01:00 0,0 0,0 5,7
Hirschenstein 05.03.2024 01:00 0,0 0,0 8,0 73,0
Illmitz - Biologische Station 05.03.2024 01:00 0,0 0,0 10,5 72,0
Karl 05.03.2024 01:00 0,0 0,0 2,1 99,0
Kittsee 05.03.2024 01:00 8,9 74,0
Kleinzicken 05.03.2024 01:00 0,0 0,0 3,9
Kobersdorf 05.03.2024 01:00 0,0 0,0 5,6 85,0
Kukmirn 05.03.2024 01:00 3,1 94,0
Loretto 05.03.2024 01:00 7,8 77,0
Lutzmannsburg 05.03.2024 01:00 5,3 86,0
Lutzmannsburg (GSA) 05.03.2024 01:00 0,0 0,0 4,8
Mattersburg 05.03.2024 01:00 0,0 0,0 5,0
Moenichkirchen 05.03.2024 01:00 0,0 0,0 5,9
Mörbisch 05.03.2024 01:00 8,8 72,0
Nebersdorf 05.03.2024 01:00 0,0 0,0 1,4 100,0
Neumarkt an der Raab 05.03.2024 01:00 0,0 0,0 6,0 99,0
Neusiedl am See 05.03.2024 01:00 0,0 0,0 9,8
Neustift an der Rosalia 05.03.2024 01:00 0,0 0,0 7,6 72,0
Nickelsdorf 05.03.2024 01:00 0,0 0,0 8,7 89,0
Nikitsch 05.03.2024 01:00 0,0 0,0 2,2 98,0
Oberdorf 05.03.2024 01:00 5,6 89,0
Oberpullendorf 05.03.2024 01:00 0,0 0,0 3,5 91,0
Oberwart 05.03.2024 01:00 0,0 0,0 5,3 89,0
Pinkafeld 05.03.2024 01:00 0,0 0,0 4,5 100,0
Podersdorf 05.03.2024 01:00 8,5 70,0
Pottschach 05.03.2024 01:00 0,0 0,0 3,8
Puchberg 05.03.2024 01:00 0,0 0,0 7,5
Redlschlag 05.03.2024 01:00 0,0 0,0 7,8 56,1
Ritzing 05.03.2024 01:00 0,0 3,5 8,2 81,0
Rust 05.03.2024 01:00 0,0 0,0 10,7 73,0
Sieggraben 05.03.2024 01:00 0,0 0,0 6,2 78,0
St. Margarethen - Berg 05.03.2024 01:00 0,0 0,0 6,8 91,0
St. Michael 05.03.2024 01:00 0,0 0,0 3,0 100,0
Stadtschlaining 05.03.2024 01:00 0,0 0,0 3,8 100,0
Trausdorf 05.03.2024 01:00 0,0 0,0 9,9 78,0
Wiener Neustadt 05.03.2024 01:00 0,0 0,0 6,3
Woerterberg 05.03.2024 01:00 0,0 0,0 5,9
Wulkaprodersdorf 05.03.2024 01:00 0,0 0,0 9,8 76,0
Zurndorf - Friedrichshof 05.03.2024 01:00 0,0 0,0 8,7 81,0